メインページ
METAR-TAF:

METAR-TAF

空港 :

カーブル国際空港

カーブル, アフガニスタン

緯度: 34-38N, 経度: 069-12E, 海抜: 1789m

現時点の気象観測

当レポートは1時間9分前の10:50(UTC)に作成
南/南西の風 7kt
気温 13°C
湿度 35%
気圧 1017 hPa
視程10km以上
高度6000ftの雲はほとんどない
高度9000ftの雲は散在している
高度20000ftの千切れ雲あり

METAR: OAKB 141050Z 20007KT 9999 FEW060 SCT090 BKN200 13/M02 Q1017 NOSIG RMK A3004 BLU BLU

時間: 16:29 (11:59 UTC)

予報

当レポートは54分前の11:05(UTC)に作成
予報は14日の 12時(UTC)から 15日の 12時(UTC)まで有効
変向風 2kt
視程10km以上
高度10000ftの雲は散在している
14日の 17時(UTC)から 14日の 19時(UTC)まで徐々に
視程10km以上
1,500メートル以下は雲なし、積乱雲なし
確率 40%
15日の 00時(UTC)から 15日の 05時(UTC)まで
視程: 5000m
15日の 09時(UTC)から 15日の 01時(UTC)まで徐々に
北/北東の風 8kt
高度10000ftの雲は散在している

TAF: OAKB 141105Z 1412/1512 VRB02KT 9999 SCT100 BECMG 1417/1419 CAVOK PROB40 1500/1505 5000 FU BECMG 1509/15011 02008KT SCT100

4,000以上の空港の気象観測と天気予報(METAR報とTAF報)

利用可能な観測所は地図上に黄色い丸と赤い丸で示す。

丸の上にカーソルを重ねると観測所名を参照できる。

次にクリックすると気象観測と天気予報を参照できる。

マップの切り替え:黒色「×」印の緑ボタンをクリックして拡大、「-」印の緑ボタンをクリックして縮小、緑色の三角印をクリックして隣りの地図に切り替え


METAR-TAF: